Buies Creek, NC

4:31 PM EDT on August 17, 2017 (GMT -0400)
Harnett County | | Change Station
Active Advisory: Heat Advisory

Elev 197 ft 35.38 °N, 78.73 °W | Updated 26 minutes ago

Clear
Clear
77 °F
Feels Like 77 °F
N
5
Wind Variable Wind from South

Today
High -- | Low -- °F
--% Chance of Precip.
Yesterday
High -- | Low -- °F
Precip. -- in
Pressure 29.98 in
Visibility 10.0 miles
Clouds Clear
Dew Point 77 °F
Humidity 100%
Rainfall 0.10 in
Snow Depth Not available.
6:36 AM 8:01 PM
Waning Crescent, 20% visible
METAR KHRJ 172005Z AUTO 17004KT 10SM CLR 25/25 A2998 RMK AO2 T02520252
Pressure 29.98 in
Visibility 10.0 miles
Clouds Clear
Dew Point 77 °F
Humidity 100%
Rainfall 0.10 in
Snow Depth Not available.
6:36 AM 8:01 PM
Waning Crescent, 20% visible
METAR KHRJ 172005Z AUTO 17004KT 10SM CLR 25/25 A2998 RMK AO2 T02520252

Get Your Daily Forecast Email!

Thanks for signing up!

Be on the lookout for a verification email in your inbox.

You'll start receiving severe weather alerts in your inbox..

×

10-Day Weather Forecast

Almanac

Astronomy

Aug. 17, 2017 Rise Set
Actual Time
Civil Twilight
Nautical Twilight
Astronomical Twilight
Moon
Length of Visible Light
Length of Day
Tomorrow will be .
, % of the Moon is Illuminated

Today's Extremes

State Highs State Lows

Community

WunderPhotos

Category 6

Welcome to Category 6. This is the collective home for Weather Underground's featured writeups by Dr. Jeff Masters (right), Bob Henson (left), Chris Burt, and other regular contributors.

Nearby

Air Quality

  Air Quality AQ Index Pollutant
Not available.

Snow Depth

Station Depth Elevation

Earthquake Activity

City Distance Mag. Time & Date
Minimum magnitude displayed is 2.5.

Coastal Water Temperatures

Place Temperature

Stations

Nearby Weather Stations

Station Location Temp. Windchill Dew Point Humidity Wind Precip. Elev Updated Type
                   

Watches & Warnings

Heat Advisory
Issued: 1:06 PM EDT Aug. 17, 2017 – National Weather Service

... Heat advisory in effect until 8 PM EDT this evening...

The National Weather Service in Raleigh has issued a heat
advisory, which is in effect until 8 PM EDT this evening.

* Heat index values... will range from 105 to 109 due to
temperatures in the upper 80s and lower 90s combined with
dew points in the mid to upper 70s.

* Timing... elevated heat index values will continue through
the afternoon into the early evening.

* Impacts... the heat and humidity may cause heat stress during
outdoor exertion or extended exposure.

Precautionary/preparedness actions...

A heat advisory means that a period of hot temperatures is
expected. Hot temperatures and high humidity will create a
situation in which heat illnesses are possible. Drink plenty of
fluids, stay in an air-conditioned room, stay out of the sun, and
check up on relatives and neighbors.